Time;durP1;ratioP1;P1;durP2;ratioP2;P2;SDS_P1;SDS_P2;PMS_P1;PMS_P2;Temp;Humidity;BMP_temperature;BMP_pressure;BME280_temperature;BME280_humidity;BME280_pressure;Samples;Min_cycle;Max_cycle;Signal;HPM_P1;HPM_P2
2021/08/04 00:00:10;;;;;;;20.73;19.13;;;;;;;14.37;100.00;98835.47;2089849;28;20627;-73
2021/08/04 00:01:14;;;;;;;22.08;20.48;;;;;;;14.34;100.00;98834.22;2089818;28;20305;-73
2021/08/04 00:02:15;;;;;;;21.53;19.77;;;;;;;14.35;100.00;98841.16;2089061;28;20229;-72
2021/08/04 00:03:16;;;;;;;22.67;20.85;;;;;;;14.32;100.00;98833.75;2089161;28;20222;-72
2021/08/04 00:04:18;;;;;;;21.67;20.17;;;;;;;14.31;100.00;98840.22;2089380;28;20234;-73
2021/08/04 00:05:19;;;;;;;22.40;20.80;;;;;;;14.32;100.00;98838.31;2080860;28;20276;-72
2021/08/04 00:06:20;;;;;;;22.37;20.63;;;;;;;14.32;100.00;98843.69;2089246;28;20280;-73
2021/08/04 00:07:21;;;;;;;22.02;20.42;;;;;;;14.29;100.00;98837.09;2089021;28;20255;-73
2021/08/04 00:08:22;;;;;;;22.30;20.70;;;;;;;14.31;100.00;98842.91;2082464;28;20227;-73
2021/08/04 00:09:23;;;;;;;23.40;21.60;;;;;;;14.31;100.00;98847.50;2081652;28;20219;-73
2021/08/04 00:10:26;;;;;;;23.27;21.40;;;;;;;14.29;100.00;98838.97;2081495;28;20226;-72
2021/08/04 00:11:27;;;;;;;23.40;21.52;;;;;;;14.30;100.00;98845.91;2081525;28;20632;-73
2021/08/04 00:12:28;;;;;;;22.37;20.57;;;;;;;14.29;100.00;98839.78;2081494;28;20273;-73
2021/08/04 00:13:29;;;;;;;22.30;20.60;;;;;;;14.30;100.00;98837.88;2081592;28;20276;-73
2021/08/04 00:14:31;;;;;;;22.90;21.00;;;;;;;14.27;100.00;98831.25;2081413;28;20223;-73
2021/08/04 00:15:32;;;;;;;22.60;21.08;;;;;;;14.26;100.00;98840.44;2081488;28;20705;-73
2021/08/04 00:16:33;;;;;;;23.00;20.87;;;;;;;14.23;100.00;98830.31;2081436;28;20602;-73
2021/08/04 00:17:34;;;;;;;21.98;20.48;;;;;;;14.22;100.00;98830.66;2080763;28;20593;-73
2021/08/04 00:18:36;;;;;;;22.83;20.97;;;;;;;14.22;100.00;98834.13;2081558;28;20223;-73
2021/08/04 00:19:36;;;;;;;23.33;21.60;;;;;;;14.21;100.00;98843.28;2081486;28;20245;-73
2021/08/04 00:20:38;;;;;;;22.00;20.50;;;;;;;14.20;100.00;98831.00;2086626;28;20329;-72
2021/08/04 00:21:38;;;;;;;21.70;20.10;;;;;;;14.20;100.00;98830.19;2089060;28;20729;-73
2021/08/04 00:22:41;;;;;;;22.00;20.40;;;;;;;14.19;100.00;98831.31;2089642;28;20617;-73
2021/08/04 00:23:41;;;;;;;21.90;20.20;;;;;;;14.18;100.00;98829.75;2089739;28;20238;-73
2021/08/04 00:24:43;;;;;;;22.00;20.43;;;;;;;14.18;100.00;98833.22;2089188;28;20265;-72
2021/08/04 00:25:45;;;;;;;22.20;20.63;;;;;;;14.15;100.00;98823.91;2088923;28;20241;-72
2021/08/04 00:26:46;;;;;;;22.08;20.45;;;;;;;14.14;100.00;98822.31;2089761;28;20233;-73
2021/08/04 00:27:47;;;;;;;22.15;20.55;;;;;;;14.17;100.00;98828.19;2089071;28;20780;-73
2021/08/04 00:28:49;;;;;;;21.33;19.83;;;;;;;14.14;100.00;98827.69;2088910;28;20564;-73
2021/08/04 00:29:49;;;;;;;22.65;21.05;;;;;;;14.13;100.00;98831.50;2088859;28;20242;-73
2021/08/04 00:30:51;;;;;;;21.40;19.90;;;;;;;14.14;100.00;98827.69;2088862;28;20273;-73
2021/08/04 00:31:51;;;;;;;22.58;20.90;;;;;;;14.14;100.00;98827.69;2088438;28;20287;-72
2021/08/04 00:32:54;;;;;;;22.63;20.80;;;;;;;14.15;100.00;98834.63;2080520;28;20235;-72
2021/08/04 00:33:56;;;;;;;22.35;20.85;;;;;;;14.13;100.00;98823.44;2088743;28;20636;-73
2021/08/04 00:34:58;;;;;;;21.92;20.52;;;;;;;14.15;100.00;98828.47;2088781;28;20239;-73
2021/08/04 00:35:59;;;;;;;22.40;20.58;;;;;;;14.15;100.00;98823.91;2080694;28;20330;-72
2021/08/04 00:37:01;;;;;;;22.13;20.20;;;;;;;14.15;100.00;98828.47;2080846;28;20223;-73
2021/08/04 00:38:08;;;;;;;22.70;21.10;;;;;;;14.15;100.00;98823.91;2080427;28;20230;-73
2021/08/04 00:39:10;;;;;;;22.42;20.65;;;;;;;14.16;100.00;98830.06;2080953;28;20249;-73
2021/08/04 00:40:12;;;;;;;21.70;20.20;;;;;;;14.15;100.00;98823.91;2080545;28;20269;-72
2021/08/04 00:41:15;;;;;;;22.73;20.95;;;;;;;14.17;100.00;98826.28;2088899;28;20223;-72
2021/08/04 00:42:16;;;;;;;22.55;20.95;;;;;;;14.21;100.00;98827.19;2089589;28;20693;-73
2021/08/04 00:43:18;;;;;;;22.58;20.88;;;;;;;14.22;100.00;98819.94;2088712;28;20281;-73
2021/08/04 00:44:19;;;;;;;22.17;20.60;;;;;;;14.22;100.00;98811.88;2080687;28;20223;-73
2021/08/04 00:45:21;;;;;;;22.07;20.57;;;;;;;14.22;100.00;98812.66;2088826;28;20255;-73
2021/08/04 00:46:21;;;;;;;22.77;21.20;;;;;;;14.20;100.00;98814.88;2080023;28;20227;-72
2021/08/04 00:47:23;;;;;;;22.27;20.47;;;;;;;14.23;100.00;98813.44;2088685;28;20226;-72
2021/08/04 00:48:24;;;;;;;22.60;21.02;;;;;;;14.24;100.00;98817.69;2088567;28;20309;-73
2021/08/04 00:49:26;;;;;;;22.07;20.27;;;;;;;14.21;100.00;98805.72;2080420;28;20235;-73
2021/08/04 00:50:27;;;;;;;21.98;20.23;;;;;;;14.23;100.00;98816.91;2080431;28;20454;-73
2021/08/04 00:51:29;;;;;;;22.23;20.65;;;;;;;14.23;100.00;98808.84;2088733;28;20234;-73
2021/08/04 00:52:29;;;;;;;22.75;20.98;;;;;;;14.25;100.00;98814.72;2088685;28;20249;-73
2021/08/04 00:53:31;;;;;;;23.17;21.37;;;;;;;14.25;100.00;98811.25;2080299;28;20219;-73
2021/08/04 00:54:36;;;;;;;22.17;20.65;;;;;;;14.27;100.00;98819.75;2088482;28;20272;-73
2021/08/04 00:55:37;;;;;;;21.95;20.40;;;;;;;14.28;100.00;98810.59;2088639;28;20218;-73
2021/08/04 00:56:39;;;;;;;21.80;19.90;;;;;;;14.29;100.00;98812.94;2080149;28;20318;-72
2021/08/04 00:57:41;;;;;;;21.67;19.88;;;;;;;14.30;100.00;98813.72;2088771;28;20250;-73
2021/08/04 00:58:43;;;;;;;20.95;19.20;;;;;;;14.32;100.00;98808.81;2088820;28;20230;-73
2021/08/04 00:59:45;;;;;;;20.67;19.17;;;;;;;14.34;100.00;98814.66;2088557;28;20218;-73
2021/08/04 01:00:48;;;;;;;21.60;20.00;;;;;;;14.38;100.00;98826.28;2088750;28;20280;-72
2021/08/04 01:01:52;;;;;;;23.23;21.35;;;;;;;14.41;100.00;98822.94;2088386;28;20227;-73
2021/08/04 01:02:57;;;;;;;21.50;20.00;;;;;;;14.42;100.00;98822.66;2080370;28;20231;-72
2021/08/04 01:04:04;;;;;;;21.40;20.00;;;;;;;14.48;100.00;98822.47;2080783;28;20235;-73
2021/08/04 01:05:07;;;;;;;21.75;20.20;;;;;;;14.50;100.00;98829.06;2081084;28;20306;-72
2021/08/04 01:06:12;;;;;;;23.30;21.30;;;;;;;14.54;100.00;98832.69;2080205;28;20320;-72
2021/08/04 01:07:18;;;;;;;23.67;21.67;;;;;;;14.58;100.00;98825.53;2080831;28;20220;-72
2021/08/04 01:08:23;;;;;;;22.95;21.20;;;;;;;14.63;100.00;98822.66;2088762;28;20249;-73
2021/08/04 01:09:27;;;;;;;22.77;21.02;;;;;;;14.66;100.00;98823.91;2088141;28;20230;-74
2021/08/04 01:10:32;;;;;;;21.77;20.08;;;;;;;14.70;100.00;98809.50;2080711;28;20277;-73
2021/08/04 01:11:34;;;;;;;22.17;20.60;;;;;;;14.75;100.00;98818.44;2080837;28;20223;-72
2021/08/04 01:12:43;;;;;;;22.70;21.02;;;;;;;14.78;100.00;98809.75;2080593;28;20226;-73
2021/08/04 01:13:46;;;;;;;22.35;20.73;;;;;;;14.79;100.00;98795.22;2080838;28;20223;-72
2021/08/04 01:14:51;;;;;;;21.23;19.77;;;;;;;14.80;100.00;98800.25;2088607;28;20223;-73
2021/08/04 01:15:57;;;;;;;21.92;20.13;;;;;;;14.80;100.00;98796.78;2088555;28;20810;-72
2021/08/04 01:16:59;;;;;;;22.60;21.00;;;;;;;14.81;100.00;98796.44;2081927;28;20318;-73
2021/08/04 01:18:02;;;;;;;23.48;21.50;;;;;;;14.89;100.00;98789.44;2080242;28;20721;-72
2021/08/04 01:19:07;;;;;;;22.27;20.58;;;;;;;14.92;100.00;98786.84;2072321;28;20733;-73
2021/08/04 01:20:11;;;;;;;21.73;20.02;;;;;;;14.94;100.00;98784.63;2074400;28;20227;-72
2021/08/04 01:21:15;;;;;;;22.58;20.88;;;;;;;14.92;100.00;98786.84;2075335;28;20618;-73
2021/08/04 01:22:22;;;;;;;21.50;19.90;;;;;;;14.93;100.00;98784.94;2073072;28;20311;-73
2021/08/04 01:23:30;;;;;;;22.38;20.58;;;;;;;14.87;100.00;98788.97;2080575;28;20223;-72
2021/08/04 01:24:34;;;;;;;22.17;20.50;;;;;;;14.84;100.00;98778.88;2073620;28;20220;-73
2021/08/04 01:25:41;;;;;;;21.40;19.95;;;;;;;14.80;100.00;98777.97;2080291;28;20277;-73
2021/08/04 01:26:44;;;;;;;21.67;20.17;;;;;;;14.77;100.00;98773.25;2086936;28;20277;-72
2021/08/04 01:27:47;;;;;;;22.77;21.17;;;;;;;14.75;100.00;98780.84;2089165;28;20309;-72
2021/08/04 01:28:49;;;;;;;24.05;22.33;;;;;;;14.77;100.00;98781.31;2088874;28;20222;-73
2021/08/04 01:29:51;;;;;;;25.20;23.50;;;;;;;14.73;100.00;98778.50;2088588;28;20222;-73
2021/08/04 01:30:55;;;;;;;25.85;24.05;;;;;;;14.71;100.00;98775.38;2087892;28;20305;-73
2021/08/04 01:31:58;;;;;;;23.77;22.08;;;;;;;14.67;100.00;98769.84;2080409;28;20224;-73
2021/08/04 01:32:59;;;;;;;22.63;21.02;;;;;;;14.66;100.00;98781.72;2088421;28;20759;-73
2021/08/04 01:34:02;;;;;;;22.10;20.60;;;;;;;14.63;100.00;98774.34;2088548;28;20239;-73
2021/08/04 01:35:03;;;;;;;23.48;21.48;;;;;;;14.62;100.00;98783.50;2088326;28;20294;-73
2021/08/04 01:36:05;;;;;;;23.85;22.05;;;;;;;14.60;100.00;98780.38;2080181;28;20246;-72
2021/08/04 01:37:06;;;;;;;22.95;21.05;;;;;;;14.58;100.00;98782.56;2088203;28;20226;-72
2021/08/04 01:38:08;;;;;;;22.77;21.17;;;;;;;14.55;100.00;98783.25;2088747;28;20304;-72
2021/08/04 01:39:10;;;;;;;22.90;21.38;;;;;;;14.56;100.00;98784.03;2088182;28;20272;-72
2021/08/04 01:40:12;;;;;;;24.35;22.15;;;;;;;14.56;100.00;98779.44;2088436;28;20226;-73
2021/08/04 01:41:16;;;;;;;24.03;22.23;;;;;;;14.53;100.00;98777.44;2088223;28;20788;-72
2021/08/04 01:42:19;;;;;;;24.55;22.65;;;;;;;14.54;100.00;98779.00;2080431;28;20442;-73
2021/08/04 01:43:22;;;;;;;23.13;21.50;;;;;;;14.54;100.00;98781.69;2080216;28;20223;-72
2021/08/04 01:44:24;;;;;;;22.98;21.33;;;;;;;14.54;100.00;98772.84;2088056;28;20301;-73
2021/08/04 01:45:25;;;;;;;22.75;21.25;;;;;;;14.53;100.00;98782.78;2088129;28;20744;-73
2021/08/04 01:46:27;;;;;;;22.80;21.07;;;;;;;14.54;100.00;98781.69;2088032;28;20591;-73
2021/08/04 01:47:29;;;;;;;24.42;22.40;;;;;;;14.52;100.00;98772.38;2088277;28;20226;-72
2021/08/04 01:48:31;;;;;;;24.27;22.42;;;;;;;14.52;100.00;98773.16;2080084;28;20219;-73
2021/08/04 01:49:32;;;;;;;23.67;21.58;;;;;;;14.51;100.00;98774.28;2080113;28;20273;-73
2021/08/04 01:50:34;;;;;;;23.30;21.60;;;;;;;14.51;100.00;98766.22;2088383;28;20272;-73
2021/08/04 01:51:35;;;;;;;22.33;20.58;;;;;;;14.53;100.00;98769.38;2088348;28;20700;-72
2021/08/04 01:52:37;;;;;;;22.30;20.50;;;;;;;14.52;100.00;98772.38;2088351;28;20245;-73
2021/08/04 01:53:39;;;;;;;22.23;20.42;;;;;;;14.51;100.00;98765.41;2087772;28;20230;-72
2021/08/04 01:54:42;;;;;;;22.05;20.27;;;;;;;14.51;100.00;98765.41;2080052;28;20277;-73
2021/08/04 01:55:43;;;;;;;21.48;19.77;;;;;;;14.51;100.00;98776.16;2088175;28;20223;-73
2021/08/04 01:56:45;;;;;;;21.88;20.17;;;;;;;14.52;100.00;98773.16;2088139;28;20226;-73
2021/08/04 01:57:47;;;;;;;22.77;20.70;;;;;;;14.52;100.00;98778.53;2080088;28;20603;-73
2021/08/04 01:58:49;;;;;;;21.98;20.08;;;;;;;14.51;100.00;98771.59;2088186;28;20235;-73
2021/08/04 01:59:49;;;;;;;22.23;20.42;;;;;;;14.52;100.00;98781.22;2079953;28;20303;-73
2021/08/04 02:00:51;;;;;;;23.23;21.30;;;;;;;14.52;100.00;98778.53;2079900;28;20219;-73
2021/08/04 02:01:52;;;;;;;22.83;20.95;;;;;;;14.53;100.00;98779.31;2079513;28;20724;-73
2021/08/04 02:02:53;;;;;;;22.20;20.37;;;;;;;14.51;100.00;98778.84;2079827;28;20614;-72
2021/08/04 02:03:54;;;;;;;22.60;20.88;;;;;;;14.53;100.00;98780.09;2079894;28;20234;-73
2021/08/04 02:04:56;;;;;;;23.80;21.60;;;;;;;14.56;100.00;98775.97;2088212;28;20227;-72
2021/08/04 02:05:58;;;;;;;23.10;21.17;;;;;;;14.55;100.00;98783.25;2088864;28;20325;-73
2021/08/04 02:07:04;;;;;;;22.08;20.38;;;;;;;14.56;100.00;98779.44;2087993;28;20234;-72
2021/08/04 02:08:10;;;;;;;23.30;21.60;;;;;;;14.58;100.00;98781.78;2088098;28;20246;-73
2021/08/04 02:09:16;;;;;;;21.83;20.23;;;;;;;14.57;100.00;98781.00;2087800;28;20479;-72
2021/08/04 02:10:20;;;;;;;22.90;21.08;;;;;;;14.59;100.00;98786.03;2080427;28;20220;-73
2021/08/04 02:11:25;;;;;;;22.27;20.67;;;;;;;14.61;100.00;98795.38;2080137;28;20215;-73
2021/08/04 02:12:26;;;;;;;23.88;21.77;;;;;;;14.59;100.00;98813.69;2079933;28;20224;-73
2021/08/04 02:13:31;;;;;;;23.73;21.83;;;;;;;14.68;100.00;98832.41;2087965;28;20257;-72
2021/08/04 02:14:35;;;;;;;24.02;22.10;;;;;;;14.73;100.00;98836.81;2088053;28;20594;-72
2021/08/04 02:15:39;;;;;;;22.90;21.15;;;;;;;14.78;100.00;98812.44;2088169;28;20697;-73
2021/08/04 02:16:43;;;;;;;23.10;21.30;;;;;;;14.74;100.00;98806.94;2087562;28;20227;-73
2021/08/04 02:17:46;;;;;;;23.17;21.25;;;;;;;14.72;100.00;98811.84;2080224;28;20223;-73
2021/08/04 02:18:51;;;;;;;22.65;20.77;;;;;;;14.74;100.00;98808.84;2088160;28;20219;-73
2021/08/04 02:19:56;;;;;;;22.35;20.63;;;;;;;14.72;100.00;98809.16;2088486;28;20280;-72
2021/08/04 02:20:58;;;;;;;22.73;20.83;;;;;;;14.70;100.00;98811.41;2088926;28;20257;-73
2021/08/04 02:22:04;;;;;;;22.58;20.65;;;;;;;14.72;100.00;98814.53;2088037;28;20222;-73
2021/08/04 02:23:09;;;;;;;22.90;21.13;;;;;;;14.73;100.00;98815.31;2080319;28;20224;-73
2021/08/04 02:24:12;;;;;;;22.30;20.58;;;;;;;14.74;100.00;98824.94;2087626;28;20225;-73
2021/08/04 02:25:15;;;;;;;22.58;20.77;;;;;;;14.82;100.00;98834.84;2080028;28;20227;-73
2021/08/04 02:26:19;;;;;;;22.05;20.13;;;;;;;14.82;100.00;98832.16;2080053;28;20227;-73
2021/08/04 02:27:20;;;;;;;21.23;19.80;;;;;;;14.80;100.00;98826.31;2088059;28;20274;-73
2021/08/04 02:28:23;;;;;;;21.70;19.90;;;;;;;14.78;100.00;98818.59;2088130;28;20688;-73
2021/08/04 02:29:27;;;;;;;21.48;19.98;;;;;;;14.78;100.00;98801.69;2087559;28;20253;-72
2021/08/04 02:30:29;;;;;;;21.95;20.08;;;;;;;14.76;100.00;98814.66;2087885;28;20259;-73
2021/08/04 02:31:30;;;;;;;21.48;19.65;;;;;;;14.75;100.00;98821.13;2088772;28;20214;-73
2021/08/04 02:32:32;;;;;;;20.70;19.30;;;;;;;14.75;100.00;98818.44;2088729;28;20302;-73
2021/08/04 02:33:33;;;;;;;20.95;19.52;;;;;;;14.74;100.00;98812.31;2088212;28;20241;-73
2021/08/04 02:34:34;;;;;;;20.80;19.30;;;;;;;14.72;100.00;98803.00;2079659;28;20286;-73
2021/08/04 02:35:35;;;;;;;22.45;20.38;;;;;;;14.76;100.00;98806.59;2088058;28;20258;-72
2021/08/04 02:36:37;;;;;;;21.23;19.53;;;;;;;14.75;100.00;98805.81;2088667;28;20214;-72
2021/08/04 02:37:37;;;;;;;22.48;20.70;;;;;;;14.74;100.00;98806.16;2088128;28;20225;-73
2021/08/04 02:38:39;;;;;;;21.83;20.33;;;;;;;14.72;100.00;98808.38;2087801;28;20378;-73
2021/08/04 02:39:40;;;;;;;22.73;21.10;;;;;;;14.70;100.00;98806.81;2088035;28;20218;-73
2021/08/04 02:40:42;;;;;;;22.73;21.13;;;;;;;14.69;100.00;98799.09;2088433;28;20313;-73
2021/08/04 02:41:43;;;;;;;22.30;20.80;;;;;;;14.69;100.00;98794.50;2088719;28;20712;-73
2021/08/04 02:42:45;;;;;;;23.80;21.63;;;;;;;14.68;100.00;98809.06;2088789;28;20609;-73
2021/08/04 02:43:46;;;;;;;23.13;21.17;;;;;;;14.67;100.00;98801.28;2088630;28;20223;-73
2021/08/04 02:44:49;;;;;;;22.37;20.73;;;;;;;14.68;100.00;98809.06;2087964;28;20679;-72
2021/08/04 02:45:50;;;;;;;22.25;20.63;;;;;;;14.68;100.00;98809.06;2079755;28;20230;-73
2021/08/04 02:46:52;;;;;;;21.07;19.57;;;;;;;14.69;100.00;98805.25;2079439;28;20306;-73
2021/08/04 02:47:53;;;;;;;21.80;20.10;;;;;;;14.65;100.00;98801.63;2087581;28;20233;-72
2021/08/04 02:48:54;;;;;;;21.77;20.17;;;;;;;14.68;100.00;98798.31;2087899;28;20296;-72
2021/08/04 02:49:55;;;;;;;22.35;20.60;;;;;;;14.68;100.00;98798.31;2079690;28;20223;-73
2021/08/04 02:50:59;;;;;;;23.17;21.47;;;;;;;14.66;100.00;98805.88;2087822;28;23523;-73
2021/08/04 02:52:00;;;;;;;23.00;20.95;;;;;;;14.68;100.00;98800.19;2087876;28;20219;-73
2021/08/04 02:53:02;;;;;;;22.73;21.02;;;;;;;14.75;100.00;98811.19;2087857;28;20621;-73
2021/08/04 02:54:03;;;;;;;23.70;21.58;;;;;;;14.75;100.00;98796.97;2087893;28;20218;-72
2021/08/04 02:55:05;;;;;;;23.60;21.70;;;;;;;14.70;100.00;98806.03;2087829;28;20223;-73
2021/08/04 02:56:06;;;;;;;24.45;22.38;;;;;;;14.68;100.00;98813.59;2087888;28;20306;-72
2021/08/04 02:57:08;;;;;;;23.90;22.07;;;;;;;14.64;100.00;98812.72;2080996;28;20231;-73
2021/08/04 02:58:09;;;;;;;22.88;21.17;;;;;;;14.61;100.00;98810.69;2079636;28;20705;-72
2021/08/04 02:59:10;;;;;;;23.40;21.70;;;;;;;14.60;100.00;98817.19;2079354;28;20227;-72
2021/08/04 03:00:14;;;;;;;24.98;22.88;;;;;;;14.60;100.00;98822.53;2071362;28;20302;-73
2021/08/04 03:01:15;;;;;;;25.15;23.00;;;;;;;14.59;100.00;98823.63;2071369;28;20315;-73
2021/08/04 03:02:16;;;;;;;25.03;23.20;;;;;;;14.58;100.00;98819.38;2071382;28;20220;-72
2021/08/04 03:03:17;;;;;;;25.50;23.30;;;;;;;14.55;100.00;98820.81;2079620;28;20744;-72
2021/08/04 03:04:19;;;;;;;24.05;22.33;;;;;;;14.56;100.00;98821.63;2079507;28;20273;-72
2021/08/04 03:05:20;;;;;;;24.60;22.55;;;;;;;14.55;100.00;98822.72;2079660;28;20227;-73
2021/08/04 03:06:21;;;;;;;23.60;21.93;;;;;;;14.54;100.00;98813.09;2080424;28;20249;-72
2021/08/04 03:07:22;;;;;;;25.40;23.30;;;;;;;14.56;100.00;98814.34;2079063;28;20226;-73
2021/08/04 03:08:23;;;;;;;24.73;22.73;;;;;;;14.56;100.00;98817.03;2079580;28;20229;-73
2021/08/04 03:09:24;;;;;;;24.92;23.13;;;;;;;14.56;100.00;98819.72;2079330;28;20231;-73
2021/08/04 03:10:26;;;;;;;23.97;22.27;;;;;;;14.56;100.00;98814.34;2079621;28;20286;-72
2021/08/04 03:11:26;;;;;;;24.50;22.55;;;;;;;14.57;100.00;98813.22;2079028;28;21507;-72
2021/08/04 03:12:28;;;;;;;24.23;22.23;;;;;;;14.58;100.00;98805.97;2079579;28;20334;-72
2021/08/04 03:13:29;;;;;;;23.48;21.58;;;;;;;14.58;100.00;98814.78;2071396;28;20721;-73
2021/08/04 03:14:31;;;;;;;23.65;21.70;;;;;;;14.58;100.00;98809.44;2071417;28;20224;-73
2021/08/04 03:15:33;;;;;;;24.02;21.90;;;;;;;14.59;100.00;98813.69;2074733;28;20686;-73
2021/08/04 03:16:35;;;;;;;23.33;21.52;;;;;;;14.56;100.00;98806.28;2080030;28;20230;-73
2021/08/04 03:17:35;;;;;;;23.95;22.05;;;;;;;14.61;100.00;98818.75;2080231;28;20230;-73
2021/08/04 03:18:37;;;;;;;24.37;22.50;;;;;;;14.65;100.00;98819.66;2080336;28;20678;-73
2021/08/04 03:19:37;;;;;;;24.02;22.00;;;;;;;14.64;100.00;98812.72;2086251;28;20225;-73
2021/08/04 03:20:39;;;;;;;23.83;22.03;;;;;;;14.63;100.00;98817.28;2088468;28;20732;-73
2021/08/04 03:21:40;;;;;;;25.65;23.75;;;;;;;14.64;100.00;98820.75;2087704;28;20685;-73
2021/08/04 03:22:45;;;;;;;23.90;21.90;;;;;;;14.64;100.00;98826.91;2079420;28;20247;-73
2021/08/04 03:23:45;;;;;;;23.65;21.67;;;;;;;14.63;100.00;98821.88;2087710;28;20369;-73
2021/08/04 03:24:47;;;;;;;23.07;21.27;;;;;;;14.61;100.00;98824.91;2087902;28;20293;-73
2021/08/04 03:25:47;;;;;;;24.23;22.33;;;;;;;14.63;100.00;98819.19;2088446;28;20309;-72
2021/08/04 03:26:49;;;;;;;23.47;21.57;;;;;;;14.62;100.00;98821.09;2087683;28;20218;-73
2021/08/04 03:27:50;;;;;;;23.20;21.30;;;;;;;14.60;100.00;98819.88;2087679;28;20218;-73
2021/08/04 03:28:51;;;;;;;23.43;21.60;;;;;;;14.59;100.00;98824.41;2088547;28;20221;-73
2021/08/04 03:29:52;;;;;;;24.52;21.67;;;;;;;14.58;100.00;98825.53;2088088;28;20609;-72
2021/08/04 03:30:55;;;;;;;23.40;21.53;;;;;;;14.56;100.00;98826.97;2088558;28;20234;-72
2021/08/04 03:31:55;;;;;;;24.00;22.00;;;;;;;14.57;100.00;98823.97;2088464;28;20219;-72
2021/08/04 03:32:57;;;;;;;23.80;21.90;;;;;;;14.58;100.00;98824.75;2088481;28;20738;-73
2021/08/04 03:33:58;;;;;;;24.63;22.52;;;;;;;14.58;100.00;98827.44;2088383;28;20696;-72
2021/08/04 03:34:59;;;;;;;24.70;22.40;;;;;;;14.56;100.00;98825.09;2087644;28;20621;-72
2021/08/04 03:36:00;;;;;;;24.45;22.50;;;;;;;14.60;100.00;98833.28;2087702;28;20211;-73
2021/08/04 03:37:01;;;;;;;24.00;21.90;;;;;;;14.58;100.00;98836.28;2088463;28;20276;-72
2021/08/04 03:38:02;;;;;;;23.15;21.25;;;;;;;14.57;100.00;98826.66;2088302;28;20306;-73
2021/08/04 03:39:04;;;;;;;23.00;21.10;;;;;;;14.58;100.00;98827.44;2088450;28;20221;-73
2021/08/04 03:40:06;;;;;;;24.48;22.27;;;;;;;14.58;100.00;98824.75;2088363;28;20282;-73
2021/08/04 03:41:07;;;;;;;23.08;21.08;;;;;;;14.57;100.00;98823.97;2087669;28;20222;-72
2021/08/04 03:42:08;;;;;;;23.45;21.48;;;;;;;14.58;100.00;98825.53;2087412;28;20235;-73
2021/08/04 03:43:10;;;;;;;23.30;21.50;;;;;;;14.57;100.00;98828.56;2088435;28;20305;-72
2021/08/04 03:44:10;;;;;;;24.40;22.15;;;;;;;14.56;100.00;98824.28;2088460;28;20250;-72
2021/08/04 03:45:13;;;;;;;23.40;21.50;;;;;;;14.58;100.00;98825.53;2088509;28;20230;-73
2021/08/04 03:46:15;;;;;;;24.42;22.23;;;;;;;14.59;100.00;98827.09;2087604;28;20590;-73
2021/08/04 03:47:16;;;;;;;24.25;22.05;;;;;;;14.59;100.00;98827.09;2087760;28;20223;-73
2021/08/04 03:48:17;;;;;;;23.98;21.90;;;;;;;14.60;100.00;98833.28;2088405;28;20253;-73
2021/08/04 03:49:18;;;;;;;23.97;21.60;;;;;;;14.60;100.00;98834.06;2088473;28;20226;-74
2021/08/04 03:50:19;;;;;;;23.52;21.63;;;;;;;14.60;100.00;98828.69;2088441;28;20238;-73
2021/08/04 03:51:20;;;;;;;24.27;22.27;;;;;;;14.60;100.00;98830.59;2088421;28;20230;-73
2021/08/04 03:52:21;;;;;;;24.15;22.02;;;;;;;14.59;100.00;98835.16;2088427;28;20275;-74
2021/08/04 03:53:23;;;;;;;23.43;21.47;;;;;;;14.59;100.00;98829.78;2082473;28;20231;-72
2021/08/04 03:54:23;;;;;;;24.40;21.55;;;;;;;14.62;100.00;98831.06;2080989;28;20801;-73
2021/08/04 03:55:25;;;;;;;24.33;22.03;;;;;;;14.61;100.00;98830.25;2081609;28;20231;-73
2021/08/04 03:56:26;;;;;;;26.45;22.48;;;;;;;14.62;100.00;98831.84;2080748;28;20231;-73
2021/08/04 03:57:27;;;;;;;24.80;22.50;;;;;;;14.63;100.00;98830.72;2080909;28;20243;-73
2021/08/04 03:58:28;;;;;;;24.55;22.25;;;;;;;14.63;100.00;98829.94;2081742;28;20310;-72
2021/08/04 03:59:30;;;;;;;24.88;22.55;;;;;;;14.64;100.00;98837.66;2081698;28;20211;-73
2021/08/04 04:00:30;;;;;;;25.95;23.65;;;;;;;14.64;100.00;98831.50;2081662;28;20315;-73
2021/08/04 04:01:33;;;;;;;25.53;23.43;;;;;;;14.64;100.00;98837.66;2081640;28;20228;-73
2021/08/04 04:02:34;;;;;;;26.85;24.33;;;;;;;14.67;100.00;98834.31;2081598;28;20651;-73
2021/08/04 04:03:35;;;;;;;25.47;23.20;;;;;;;14.67;100.00;98839.69;2081663;28;20285;-73
2021/08/04 04:04:36;;;;;;;23.83;21.95;;;;;;;14.68;100.00;98843.97;2087213;28;20655;-73
2021/08/04 04:05:38;;;;;;;23.48;21.58;;;;;;;14.67;100.00;98834.31;2088712;28;20223;-72
2021/08/04 04:06:39;;;;;;;24.88;22.45;;;;;;;14.73;100.00;98842.19;2089890;28;20215;-73
2021/08/04 04:07:41;;;;;;;25.03;22.73;;;;;;;14.72;100.00;98843.28;2088952;28;20225;-74
2021/08/04 04:08:42;;;;;;;23.63;21.40;;;;;;;14.74;100.00;98844.53;2089053;28;20226;-73
2021/08/04 04:09:44;;;;;;;24.30;22.10;;;;;;;14.76;100.00;98838.81;2088986;28;20218;-73
2021/08/04 04:10:44;;;;;;;23.80;21.80;;;;;;;14.78;100.00;98850.03;2089078;28;20372;-73
2021/08/04 04:11:46;;;;;;;24.07;22.00;;;;;;;14.77;100.00;98835.84;2089629;28;20234;-73
2021/08/04 04:12:46;;;;;;;24.70;22.20;;;;;;;14.79;100.00;98843.56;2088956;28;20301;-73
2021/08/04 04:13:48;;;;;;;24.47;22.10;;;;;;;14.81;100.00;98833.25;2081027;28;20223;-73
2021/08/04 04:14:48;;;;;;;24.02;21.73;;;;;;;14.83;100.00;98837.19;2089088;28;20273;-73
2021/08/04 04:15:50;;;;;;;23.73;21.43;;;;;;;14.84;100.00;98833.38;2089789;28;20221;-73
2021/08/04 04:16:52;;;;;;;24.27;21.90;;;;;;;14.85;100.00;98839.53;2089609;28;20230;-74
2021/08/04 04:17:53;;;;;;;24.20;22.10;;;;;;;14.88;100.00;98836.22;2088291;28;20281;-73
2021/08/04 04:18:54;;;;;;;23.80;21.58;;;;;;;14.89;100.00;98838.56;2088906;28;20284;-74
2021/08/04 04:19:56;;;;;;;24.40;22.00;;;;;;;14.91;100.00;98835.53;2089652;28;20231;-73
2021/08/04 04:20:56;;;;;;;25.17;22.95;;;;;;;14.91;100.00;98832.84;2089729;28;23194;-73
2021/08/04 04:21:58;;;;;;;24.20;21.90;;;;;;;14.92;100.00;98831.72;2089740;28;20236;-73
2021/08/04 04:22:58;;;;;;;25.25;22.52;;;;;;;14.94;100.00;98832.19;2089601;28;20306;-74
2021/08/04 04:24:00;;;;;;;24.40;22.17;;;;;;;14.93;100.00;98834.09;2089724;28;20673;-73
2021/08/04 04:25:01;;;;;;;25.33;22.67;;;;;;;14.95;100.00;98836.47;2089069;28;20241;-73
2021/08/04 04:26:03;;;;;;;24.50;21.93;;;;;;;14.96;100.00;98821.91;2088959;28;20223;-73
2021/08/04 04:27:05;;;;;;;26.25;23.17;;;;;;;15.00;100.00;98836.25;2089680;28;20223;-74
2021/08/04 04:28:06;;;;;;;24.98;22.48;;;;;;;15.04;100.00;98836.38;2089715;28;20206;-74
2021/08/04 04:29:07;;;;;;;25.20;22.73;;;;;;;15.05;100.00;98828.00;2089249;28;20250;-72
2021/08/04 04:30:10;;;;;;;26.47;24.07;;;;;;;15.06;100.00;98836.84;2089614;28;20661;-73
2021/08/04 04:31:10;;;;;;;25.92;23.73;;;;;;;15.08;100.00;98837.28;2088741;28;20305;-73
2021/08/04 04:32:13;;;;;;;25.97;23.77;;;;;;;15.09;100.00;98839.63;2088888;28;20681;-73
2021/08/04 04:33:14;;;;;;;26.25;23.77;;;;;;;15.10;100.00;98841.19;2089017;28;20607;-73
2021/08/04 04:34:15;;;;;;;25.90;23.60;;;;;;;15.14;100.00;98844.81;2088850;28;20301;-73
2021/08/04 04:35:16;;;;;;;27.08;24.58;;;;;;;15.14;100.00;98839.44;2088811;28;20230;-73
2021/08/04 04:36:17;;;;;;;27.47;24.57;;;;;;;15.17;100.00;98838.78;2088909;28;20225;-74
2021/08/04 04:37:18;;;;;;;25.55;23.33;;;;;;;15.19;100.00;98841.91;2089447;28;20719;-73
2021/08/04 04:38:20;;;;;;;25.73;23.23;;;;;;;15.23;100.00;98840.13;2089689;28;20577;-73
2021/08/04 04:39:20;;;;;;;26.42;23.92;;;;;;;15.26;100.00;98844.06;2088690;28;20280;-74
2021/08/04 04:40:22;;;;;;;27.33;22.93;;;;;;;15.27;100.00;98848.31;2088854;28;20223;-73
2021/08/04 04:41:23;;;;;;;25.63;23.08;;;;;;;15.31;100.00;98848.44;2082886;28;20258;-72